Harrisburg, Pennsylvania
Current Conditions -  °F | °C
As of 11:56 PM on Saturday 20 Dec 2014 (Local Time) from KCXY Reporting Station
Overcast Overcast  
Wind Chill: 28°   Ceiling: 3000
Heat Index: 28°   Visibility: 10mi
Dew Point: 21°   Wind: 3mph
Humidity: 75%   Direction: 250°WSW
Pressure: 30.29"   Gusts: NA
Location:  40.26°N, 76.88°W
Report Text: KCXY 210456Z AUTO 25003KT 10SM OVC030 M02/M06 A3029 RMK AO2 SLP264 T10221061 400171044
Loading
Personal Weather Stations






























Interactive Weather Map New forecast layout! Learn more

10-Day Weather Forecast

Advertisements
Track Severe Weather on mobile